METAR Data
IDs: Format: Raw Decoded Include TAF

Data at: 0913 UTC 07 Dec 2021

KHWO 070853Z AUTO 33004KT 10SM CLR 19/19 A3006 RMK AO2 SLP180 T01940189 56010 $
KHWO 070753Z AUTO 00000KT 10SM CLR 21/19 A3007 RMK AO2 SLP183 T02060194 $
KHWO 070653Z AUTO 30005KT 10SM CLR 21/21 A3008 RMK AO2 SLP185 T02110206 $
KHWO 070636Z AUTO 29005KT 10SM SCT002 22/21 A3008 RMK AO2 T02170211 $
KHWO 070612Z AUTO 26004KT 3SM BR OVC002 22/22 A3009 RMK AO2 T02220217 $
KHWO 070608Z AUTO 26004KT 1 1/2SM BR OVC002 22/22 A3009 RMK AO2 T02220217 $
KHWO 070553Z AUTO 25005KT 1/2SM FG VV002 22/22 A3009 RMK AO2 SLP190 T02220217 10233 20217 55002 $
KHWO 070539Z AUTO 27005KT 1/2SM FG VV002 22/22 A3009 RMK AO2 T02220217 $
KHWO 070529Z AUTO 25003KT 1SM BR VV002 22/22 A3009 RMK AO2 T02220222 $
KHWO 070453Z AUTO 30006KT 1/2SM FG VV002 22/21 A3009 RMK AO2 SLP190 T02170211 402780211 TSNO $
KHWO 070451Z AUTO 30006KT 1/2SM FG VV002 22/21 A3009 RMK AO2 TSNO $
KHWO 070442Z AUTO 31004KT 1 1/4SM BR BKN002 22/21 A3009 RMK AO2 T02170211 TSNO $
KHWO 070431Z AUTO 30003KT 2SM BR BKN004 22/22 A3010 RMK AO2 T02170217 $
KHWO 070412Z AUTO 00000KT 1 3/4SM BR FEW005 22/21 A3010 RMK AO2 T02170211 $
KHWO 070405Z AUTO 00000KT 2SM BR FEW005 22/21 A3010 RMK AO2 T02170211 $
KHWO 070353Z AUTO 00000KT 5SM BR CLR 22/21 A3010 RMK AO2 SLP193 T02170211 $
KHWO 070253Z AUTO 28003KT 10SM CLR 22/22 A3010 RMK AO2 SLP192 T02220217 51009 $
KHWO 070153Z AUTO 00000KT 10SM SCT055 23/22 A3010 RMK AO2 SLP191 T02280217 $
KHWO 070053Z 15003KT 10SM BKN045 23/22 A3009 RMK AO2 SLP188 T02330222 $
KHWO 062353Z 18003KT 10SM CLR 23/22 A3007 RMK AO2 SLP183 60061 T02330222 10267 20233 53006 $
KHWO 062253Z 24/22 A3007 RMK AO2 SLP181 T02390222 $
KHWO 062153Z 13006KT 10SM OVC080 25/22 A3006 RMK AO2 SLP178 T02500217 $
KHWO 062053Z 03005KT 10SM BKN065 26/22 A3005 RMK AO2 LTG DSNT NE TSE14 SLP177 60061 T02560222 56006 $
KHWO 062036Z 01005KT 10SM SCT023 BKN036 OVC065 24/22 A3006 RMK AO2 LTG DSNT NE AND E TSE14 T02440222 $
KHWO 062020Z 30004KT 10SM VCTS OVC023 24/22 A3006 RMK AO2 LTG DSNT N-E TSE14 T02390217 $
KHWO 061953Z 27005KT 10SM TS FEW008 BKN021 OVC036 24/23 A3006 RMK AO2 LTG DSNT NE AND E RAE42 TSB04 SLP179 P0060 T02390228 $
KHWO 061929Z 23007KT 3SM -TSRA BR FEW008 BKN018 OVC027 23/23 A3006 RMK AO2 LTG DSNT N TSB04 P0059 T02330228 $
KHWO 061921Z 23009KT 1 1/2SM +TSRA BR FEW007 BKN016 OVC028 23/23 A3006 RMK AO2 LTG DSNT N TSB04 P0055 T02330228 $
KHWO 061916Z 21011KT 2 1/2SM +TSRA BR FEW007 BKN014 OVC028 24/23 A3006 RMK AO2 LTG DSNT N TSB04 P0036 T02390228 $
KHWO 061905Z 25010KT 2 1/2SM +TSRA BR 24/22 A3006 RMK AO2 VIS 1 1/2V5 LTG DSNT N TSB04 P0016 T02390222 $
KHWO 061900Z 24014KT 5SM VCTS +RA BR 24/23 A3006 RMK AO2 LTG DSNT N P0009 T02440228 $
KHWO 061853Z 17010KT 4SM VCTS -RA BR BKN010 OVC080 25/23 A3006 RMK AO2 RAB13RAEMMB43RAEMMB52 SLP178 P0001 T02500233 $
KHWO 061841Z 17010KT 4SM VCTS BR BKN010 OVC080 26/23 A3006 RMK AO2 RAB13RAEMM P0001 T02560233 $
KHWO 061833Z VCTS 26/23 A3006 RMK AO2 RAB13RAEMM P0001 T02610233 $
KHWO 061827Z 15010KT 10SM -RA FEW018 BKN028 OVC060 26/23 A3006 RMK AO2 RAB13 P0000 T02610233
KHWO 061810Z 16012KT 10SM SCT024 BKN032 OVC060 27/22 A3007 RMK AO2 T02670222
KHWO 061801Z 14010KT 10SM FEW020 BKN026 OVC050 27/22 A3008 RMK AO2 T02670222
KHWO 061753Z 15011KT 10SM FEW020 BKN034 OVC055 27/22 A3007 RMK AO2 SLP183 60009 T02670222 10278 20228 58027
KHWO 061705Z 17010KT 10SM FEW019 SCT026 BKN035 27/23 A3010 RMK AO2 T02720228
KHWO 061653Z 15011KT 10SM SCT019 BKN025 BKN033 27/22 A3010 RMK AO2 RAB1557E08 SLP193 P0000 T02720222
KHWO 061613Z VRB03KT 10SM BKN015 BKN022 BKN050 27/23 A3013 RMK AO2 RAB1557E08 P0000 T02670233
KHWO 061604Z 15006KT 10SM -RA SCT017 BKN037 BKN050 27/23 A3013 RMK AO2 RAB1557 P0000 T02670233
KHWO 061553Z 16006KT 10SM BKN018 BKN027 BKN055 26/23 A3014 RMK AO2 SLP205 T02610228
KHWO 061543Z 18005KT 10SM FEW012 BKN018 BKN022 27/23 A3014 RMK AO2 T02670233
KHWO 061525Z 20006KT 10SM BKN013 BKN019 BKN024 26/23 A3015 RMK AO2 T02560228
KHWO 061453Z 00000KT 10SM FEW023 FEW055 26/23 A3015 RMK AO2 RAE26 SLP211 P0001 60009 T02560233 51008
KHWO 061422Z 00000KT 10SM -RA SCT019 SCT033 BKN048 23/22 A3016 RMK AO2 P0001 T02330222
KHWO 061413Z 00000KT 10SM -RA SCT015 BKN024 OVC070 23/22 A3015 RMK AO2 P0001 T02330222
KHWO 061353Z 29003KT 6SM RA BR BKN014 BKN019 OVC034 23/22 A3014 RMK AO2 RAB19 SLP208 P0008 T02280222
KHWO 061320Z 00000KT 10SM -RA SCT014 BKN022 BKN048 23/22 A3013 RMK AO2 RAB19 P0001 T02330222
KHWO 061253Z 00000KT 10SM FEW020 SCT080 23/22 A3013 RMK AO2 RAE21 SLP203 P0000 T02280217
KHWO 061153Z 29003KT 10SM -RA FEW050 OVC065 23/22 A3012 RMK AO2 RAB25 SLP200 P0001 60001 70001 T02280217 10228 20211 53009
KHWO 061053Z AUTO 00000KT 10SM OVC060 22/22 A3010 RMK AO2 SLP193 T02220217
KHWO 060953Z AUTO 00000KT 10SM FEW026 FEW050 OVC080 22/22 A3009 RMK AO2 SLP190 T02220217
KHWO 060853Z AUTO 08003KT 10SM FEW034 BKN055 OVC070 23/22 A3010 RMK AO2 RAB06E53 SLP191 P0000 60000 T02280217 56010
KHWO 060753Z AUTO 08003KT 10SM FEW085 21/19 A3010 RMK AO2 RAB02E12 SLP192 P0000 T02110194
KHWO 060653Z AUTO 00000KT 10SM BKN060 OVC075 22/20 A3011 RMK AO2 SLP196 T02220200
KHWO 060553Z AUTO 00000KT 10SM SCT036 BKN050 OVC060 22/20 A3012 RMK AO2 SLP201 T02220200 10228 20206 58002
KHWO 060453Z AUTO 00000KT 10SM BKN034 BKN050 22/20 A3013 RMK AO2 SLP203 T02170200 402830172
KHWO 060353Z AUTO 00000KT 10SM FEW033 SCT043 SCT060 21/19 A3013 RMK AO2 SLP202 T02110194
KHWO 060253Z AUTO 00000KT 10SM SCT035 21/19 A3013 RMK AO2 SLP202 T02110189 51007
KHWO 060153Z AUTO 00000KT 10SM CLR 21/19 A3013 RMK AO2 SLP201 T02110194
KHWO 060053Z 00000KT 10SM CLR 22/20 A3012 RMK AO2 SLP198 T02170200
KHWO 052353Z 06004KT 10SM CLR 23/19 A3011 RMK AO2 SLP195 T02280194 10283 20222 53008
KHWO 052253Z 09006KT 10SM CLR 23/20 A3010 RMK AO2 SLP191 T02330200
KHWO 052153Z 11008KT 10SM CLR 24/20 A3009 RMK AO2 SLP189 T02440200